sensor_id;sensor_type;location;lat;lon;timestamp;temperature;humidity
21331;DHT22;10824;51.632;4.950;2023-01-19T00:00:58;2.50;99.90
21331;DHT22;10824;51.632;4.950;2023-01-19T00:03:25;2.40;99.90
21331;DHT22;10824;51.632;4.950;2023-01-19T00:05:52;2.40;99.90
21331;DHT22;10824;51.632;4.950;2023-01-19T00:08:20;2.30;99.90
21331;DHT22;10824;51.632;4.950;2023-01-19T00:10:48;2.30;99.90
21331;DHT22;10824;51.632;4.950;2023-01-19T00:13:18;2.20;99.90
21331;DHT22;10824;51.632;4.950;2023-01-19T00:15:46;2.20;99.90
21331;DHT22;10824;51.632;4.950;2023-01-19T00:18:13;2.20;99.90
21331;DHT22;10824;51.632;4.950;2023-01-19T00:20:40;2.20;99.90
21331;DHT22;10824;51.632;4.950;2023-01-19T00:23:08;2.30;99.90
21331;DHT22;10824;51.632;4.950;2023-01-19T00:25:36;2.30;99.90
21331;DHT22;10824;51.632;4.950;2023-01-19T00:28:11;2.30;99.90
21331;DHT22;10824;51.632;4.950;2023-01-19T00:30:39;2.30;99.90
21331;DHT22;10824;51.632;4.950;2023-01-19T00:33:08;2.30;99.90
21331;DHT22;10824;51.632;4.950;2023-01-19T00:35:36;2.30;99.90
21331;DHT22;10824;51.632;4.950;2023-01-19T00:38:03;2.30;99.90
21331;DHT22;10824;51.632;4.950;2023-01-19T00:40:30;2.40;99.90
21331;DHT22;10824;51.632;4.950;2023-01-19T00:42:57;2.40;99.90
21331;DHT22;10824;51.632;4.950;2023-01-19T00:45:26;2.40;99.90
21331;DHT22;10824;51.632;4.950;2023-01-19T00:47:53;2.40;99.90
21331;DHT22;10824;51.632;4.950;2023-01-19T00:50:24;2.40;99.90
21331;DHT22;10824;51.632;4.950;2023-01-19T00:52:53;2.50;99.90
21331;DHT22;10824;51.632;4.950;2023-01-19T00:55:21;2.50;99.90
21331;DHT22;10824;51.632;4.950;2023-01-19T00:57:48;2.50;99.90
21331;DHT22;10824;51.632;4.950;2023-01-19T01:00:17;2.50;99.90
21331;DHT22;10824;51.632;4.950;2023-01-19T01:02:46;2.50;99.90
21331;DHT22;10824;51.632;4.950;2023-01-19T01:05:14;2.50;99.90
21331;DHT22;10824;51.632;4.950;2023-01-19T01:07:42;2.60;99.90
21331;DHT22;10824;51.632;4.950;2023-01-19T01:10:17;2.60;99.90
21331;DHT22;10824;51.632;4.950;2023-01-19T01:12:45;2.60;99.90
21331;DHT22;10824;51.632;4.950;2023-01-19T01:15:25;2.60;99.90
21331;DHT22;10824;51.632;4.950;2023-01-19T01:17:53;2.60;99.90
21331;DHT22;10824;51.632;4.950;2023-01-19T01:20:24;2.60;99.90
21331;DHT22;10824;51.632;4.950;2023-01-19T01:22:53;2.60;99.90
21331;DHT22;10824;51.632;4.950;2023-01-19T01:25:22;2.60;99.90
21331;DHT22;10824;51.632;4.950;2023-01-19T01:27:50;2.50;99.90
21331;DHT22;10824;51.632;4.950;2023-01-19T01:33:58;2.50;99.90
21331;DHT22;10824;51.632;4.950;2023-01-19T01:36:25;2.40;99.90
21331;DHT22;10824;51.632;4.950;2023-01-19T01:38:54;2.40;99.90
21331;DHT22;10824;51.632;4.950;2023-01-19T01:41:22;2.30;99.90
21331;DHT22;10824;51.632;4.950;2023-01-19T01:43:54;2.30;99.90
21331;DHT22;10824;51.632;4.950;2023-01-19T01:46:30;2.30;99.90
21331;DHT22;10824;51.632;4.950;2023-01-19T01:49:07;2.20;99.90
21331;DHT22;10824;51.632;4.950;2023-01-19T01:51:43;2.20;99.90
21331;DHT22;10824;51.632;4.950;2023-01-19T01:54:18;2.20;99.90
21331;DHT22;10824;51.632;4.950;2023-01-19T01:56:48;2.20;99.90
21331;DHT22;10824;51.632;4.950;2023-01-19T01:59:24;2.20;99.90
21331;DHT22;10824;51.632;4.950;2023-01-19T02:01:55;2.20;99.90
21331;DHT22;10824;51.632;4.950;2023-01-19T02:04:51;2.20;99.90
21331;DHT22;10824;51.632;4.950;2023-01-19T02:07:34;2.20;99.90
21331;DHT22;10824;51.632;4.950;2023-01-19T02:10:22;2.20;99.90
21331;DHT22;10824;51.632;4.950;2023-01-19T02:13:07;2.20;99.90
21331;DHT22;10824;51.632;4.950;2023-01-19T02:15:51;2.20;99.90
21331;DHT22;10824;51.632;4.950;2023-01-19T02:18:21;2.20;99.90
21331;DHT22;10824;51.632;4.950;2023-01-19T02:21:15;2.20;99.90
21331;DHT22;10824;51.632;4.950;2023-01-19T02:26:27;2.30;99.90
21331;DHT22;10824;51.632;4.950;2023-01-19T02:31:28;2.30;99.90
21331;DHT22;10824;51.632;4.950;2023-01-19T02:33:56;2.30;99.90
21331;DHT22;10824;51.632;4.950;2023-01-19T02:39:15;2.40;99.90
21331;DHT22;10824;51.632;4.950;2023-01-19T02:41:46;2.50;99.90
21331;DHT22;10824;51.632;4.950;2023-01-19T02:44:15;2.60;99.90
21331;DHT22;10824;51.632;4.950;2023-01-19T02:46:43;2.60;99.90
21331;DHT22;10824;51.632;4.950;2023-01-19T02:49:10;2.60;99.90
21331;DHT22;10824;51.632;4.950;2023-01-19T02:51:37;2.60;99.90
21331;DHT22;10824;51.632;4.950;2023-01-19T02:54:13;2.50;99.90
21331;DHT22;10824;51.632;4.950;2023-01-19T03:00:07;2.30;99.90
21331;DHT22;10824;51.632;4.950;2023-01-19T03:02:41;2.20;99.90
21331;DHT22;10824;51.632;4.950;2023-01-19T03:05:40;2.00;99.90
21331;DHT22;10824;51.632;4.950;2023-01-19T03:08:24;1.80;99.90
21331;DHT22;10824;51.632;4.950;2023-01-19T03:11:02;1.70;99.90
21331;DHT22;10824;51.632;4.950;2023-01-19T03:13:46;1.70;99.90
21331;DHT22;10824;51.632;4.950;2023-01-19T03:16:26;1.50;99.90
21331;DHT22;10824;51.632;4.950;2023-01-19T03:21:48;1.40;99.90
21331;DHT22;10824;51.632;4.950;2023-01-19T03:24:17;1.30;99.90
21331;DHT22;10824;51.632;4.950;2023-01-19T03:26:55;1.40;99.90
21331;DHT22;10824;51.632;4.950;2023-01-19T03:29:27;1.30;99.90
21331;DHT22;10824;51.632;4.950;2023-01-19T03:31:58;1.30;99.90
21331;DHT22;10824;51.632;4.950;2023-01-19T03:34:27;1.30;99.90
21331;DHT22;10824;51.632;4.950;2023-01-19T03:36:58;1.30;99.90
21331;DHT22;10824;51.632;4.950;2023-01-19T03:39:27;1.30;99.90
21331;DHT22;10824;51.632;4.950;2023-01-19T03:41:58;1.30;99.90
21331;DHT22;10824;51.632;4.950;2023-01-19T03:44:28;1.20;99.90
21331;DHT22;10824;51.632;4.950;2023-01-19T03:46:57;1.30;99.90
21331;DHT22;10824;51.632;4.950;2023-01-19T03:49:25;1.30;99.90
21331;DHT22;10824;51.632;4.950;2023-01-19T03:51:57;1.20;99.90
21331;DHT22;10824;51.632;4.950;2023-01-19T03:54:25;1.30;99.90
21331;DHT22;10824;51.632;4.950;2023-01-19T03:56:52;1.30;99.90
21331;DHT22;10824;51.632;4.950;2023-01-19T03:59:20;1.20;99.90
21331;DHT22;10824;51.632;4.950;2023-01-19T04:01:48;1.30;99.90
21331;DHT22;10824;51.632;4.950;2023-01-19T04:04:15;1.30;99.90
21331;DHT22;10824;51.632;4.950;2023-01-19T04:06:43;1.30;99.90
21331;DHT22;10824;51.632;4.950;2023-01-19T04:09:10;1.40;99.90
21331;DHT22;10824;51.632;4.950;2023-01-19T04:11:37;1.40;99.90
21331;DHT22;10824;51.632;4.950;2023-01-19T04:14:04;1.50;99.90
21331;DHT22;10824;51.632;4.950;2023-01-19T04:16:31;1.50;99.90
21331;DHT22;10824;51.632;4.950;2023-01-19T04:18:58;1.40;99.90
21331;DHT22;10824;51.632;4.950;2023-01-19T04:21:26;1.50;99.90
21331;DHT22;10824;51.632;4.950;2023-01-19T04:23:53;1.50;99.90
21331;DHT22;10824;51.632;4.950;2023-01-19T04:26:20;1.50;99.90
21331;DHT22;10824;51.632;4.950;2023-01-19T04:28:47;1.50;99.90
21331;DHT22;10824;51.632;4.950;2023-01-19T04:31:14;1.50;99.90
21331;DHT22;10824;51.632;4.950;2023-01-19T04:33:42;1.40;99.90
21331;DHT22;10824;51.632;4.950;2023-01-19T04:36:09;1.40;99.90
21331;DHT22;10824;51.632;4.950;2023-01-19T04:38:36;1.40;99.90
21331;DHT22;10824;51.632;4.950;2023-01-19T04:41:04;1.40;99.90
21331;DHT22;10824;51.632;4.950;2023-01-19T04:43:31;1.30;99.90
21331;DHT22;10824;51.632;4.950;2023-01-19T04:45:58;1.40;99.90
21331;DHT22;10824;51.632;4.950;2023-01-19T04:48:26;1.40;99.90
21331;DHT22;10824;51.632;4.950;2023-01-19T04:50:53;1.50;99.90
21331;DHT22;10824;51.632;4.950;2023-01-19T04:53:20;1.40;99.90
21331;DHT22;10824;51.632;4.950;2023-01-19T04:55:52;1.50;99.90
21331;DHT22;10824;51.632;4.950;2023-01-19T04:58:19;1.50;99.90
21331;DHT22;10824;51.632;4.950;2023-01-19T05:00:46;1.50;99.90
21331;DHT22;10824;51.632;4.950;2023-01-19T05:03:18;1.40;99.90
21331;DHT22;10824;51.632;4.950;2023-01-19T05:05:48;1.40;99.90
21331;DHT22;10824;51.632;4.950;2023-01-19T05:08:15;1.40;99.90
21331;DHT22;10824;51.632;4.950;2023-01-19T05:10:42;1.40;99.90
21331;DHT22;10824;51.632;4.950;2023-01-19T05:13:09;1.40;99.90
21331;DHT22;10824;51.632;4.950;2023-01-19T05:15:37;1.40;99.90
21331;DHT22;10824;51.632;4.950;2023-01-19T05:18:04;1.40;99.90
21331;DHT22;10824;51.632;4.950;2023-01-19T05:20:31;1.40;99.90
21331;DHT22;10824;51.632;4.950;2023-01-19T05:22:58;1.50;99.90
21331;DHT22;10824;51.632;4.950;2023-01-19T05:25:26;1.50;99.90
21331;DHT22;10824;51.632;4.950;2023-01-19T05:27:53;1.40;99.90
21331;DHT22;10824;51.632;4.950;2023-01-19T05:30:20;1.50;99.90
21331;DHT22;10824;51.632;4.950;2023-01-19T05:32:47;1.50;99.90
21331;DHT22;10824;51.632;4.950;2023-01-19T05:35:15;1.60;99.90
21331;DHT22;10824;51.632;4.950;2023-01-19T05:37:50;1.60;99.90
21331;DHT22;10824;51.632;4.950;2023-01-19T05:40:17;1.60;99.90
21331;DHT22;10824;51.632;4.950;2023-01-19T05:42:45;1.60;99.90
21331;DHT22;10824;51.632;4.950;2023-01-19T05:45:11;1.60;99.90
21331;DHT22;10824;51.632;4.950;2023-01-19T05:47:47;1.60;99.90
21331;DHT22;10824;51.632;4.950;2023-01-19T05:50:14;1.70;99.90
21331;DHT22;10824;51.632;4.950;2023-01-19T05:52:42;1.60;99.90
21331;DHT22;10824;51.632;4.950;2023-01-19T05:55:09;1.70;99.90
21331;DHT22;10824;51.632;4.950;2023-01-19T05:57:36;1.60;99.90
21331;DHT22;10824;51.632;4.950;2023-01-19T06:00:03;1.60;99.90
21331;DHT22;10824;51.632;4.950;2023-01-19T06:02:34;1.60;99.90
21331;DHT22;10824;51.632;4.950;2023-01-19T06:05:02;1.60;99.90
21331;DHT22;10824;51.632;4.950;2023-01-19T06:07:30;1.60;99.90
21331;DHT22;10824;51.632;4.950;2023-01-19T06:10:00;1.50;99.90
21331;DHT22;10824;51.632;4.950;2023-01-19T06:12:27;1.50;99.90
21331;DHT22;10824;51.632;4.950;2023-01-19T06:14:54;1.50;99.90
21331;DHT22;10824;51.632;4.950;2023-01-19T06:17:21;1.50;99.90
21331;DHT22;10824;51.632;4.950;2023-01-19T06:19:48;1.50;99.90
21331;DHT22;10824;51.632;4.950;2023-01-19T06:22:15;1.60;99.90
21331;DHT22;10824;51.632;4.950;2023-01-19T06:24:44;1.60;99.90
21331;DHT22;10824;51.632;4.950;2023-01-19T06:27:14;1.60;99.90
21331;DHT22;10824;51.632;4.950;2023-01-19T06:29:41;1.60;99.90
21331;DHT22;10824;51.632;4.950;2023-01-19T06:32:08;1.50;99.90
21331;DHT22;10824;51.632;4.950;2023-01-19T06:34:35;1.60;99.90
21331;DHT22;10824;51.632;4.950;2023-01-19T06:37:02;1.50;99.90
21331;DHT22;10824;51.632;4.950;2023-01-19T06:39:29;1.50;99.90
21331;DHT22;10824;51.632;4.950;2023-01-19T06:42:06;1.50;99.90
21331;DHT22;10824;51.632;4.950;2023-01-19T06:44:33;1.50;99.90
21331;DHT22;10824;51.632;4.950;2023-01-19T06:47:00;1.50;99.90
21331;DHT22;10824;51.632;4.950;2023-01-19T06:49:41;1.50;99.90
21331;DHT22;10824;51.632;4.950;2023-01-19T06:52:09;1.50;99.90
21331;DHT22;10824;51.632;4.950;2023-01-19T06:54:37;1.60;99.90
21331;DHT22;10824;51.632;4.950;2023-01-19T06:57:05;1.60;99.90
21331;DHT22;10824;51.632;4.950;2023-01-19T06:59:32;1.60;99.90
21331;DHT22;10824;51.632;4.950;2023-01-19T07:01:59;1.60;99.90
21331;DHT22;10824;51.632;4.950;2023-01-19T07:04:46;1.70;99.90
21331;DHT22;10824;51.632;4.950;2023-01-19T07:07:15;1.70;99.90
21331;DHT22;10824;51.632;4.950;2023-01-19T07:09:42;1.70;99.90
21331;DHT22;10824;51.632;4.950;2023-01-19T07:12:09;1.80;99.90
21331;DHT22;10824;51.632;4.950;2023-01-19T07:14:39;1.80;99.90
21331;DHT22;10824;51.632;4.950;2023-01-19T07:17:06;1.80;99.90
21331;DHT22;10824;51.632;4.950;2023-01-19T07:19:34;1.80;99.90
21331;DHT22;10824;51.632;4.950;2023-01-19T07:22:01;1.80;99.90
21331;DHT22;10824;51.632;4.950;2023-01-19T07:24:29;1.80;99.90
21331;DHT22;10824;51.632;4.950;2023-01-19T07:27:03;1.80;99.90
21331;DHT22;10824;51.632;4.950;2023-01-19T07:29:31;1.80;99.90
21331;DHT22;10824;51.632;4.950;2023-01-19T07:31:58;1.80;99.90
21331;DHT22;10824;51.632;4.950;2023-01-19T07:34:25;1.80;99.90
21331;DHT22;10824;51.632;4.950;2023-01-19T07:36:52;1.80;99.90
21331;DHT22;10824;51.632;4.950;2023-01-19T07:39:24;1.80;99.90
21331;DHT22;10824;51.632;4.950;2023-01-19T07:41:52;1.80;99.90
21331;DHT22;10824;51.632;4.950;2023-01-19T07:44:21;1.80;99.90
21331;DHT22;10824;51.632;4.950;2023-01-19T07:46:49;1.80;99.90
21331;DHT22;10824;51.632;4.950;2023-01-19T07:49:16;1.80;99.90
21331;DHT22;10824;51.632;4.950;2023-01-19T07:51:43;1.80;99.90
21331;DHT22;10824;51.632;4.950;2023-01-19T07:54:11;1.80;99.90
21331;DHT22;10824;51.632;4.950;2023-01-19T07:56:38;1.80;99.90
21331;DHT22;10824;51.632;4.950;2023-01-19T07:59:06;1.80;99.90
21331;DHT22;10824;51.632;4.950;2023-01-19T08:01:35;1.80;99.90
21331;DHT22;10824;51.632;4.950;2023-01-19T08:04:02;1.80;99.90
21331;DHT22;10824;51.632;4.950;2023-01-19T08:06:33;1.80;99.90
21331;DHT22;10824;51.632;4.950;2023-01-19T08:09:00;1.80;99.90
21331;DHT22;10824;51.632;4.950;2023-01-19T08:11:33;1.80;99.90
21331;DHT22;10824;51.632;4.950;2023-01-19T08:14:00;1.80;99.90
21331;DHT22;10824;51.632;4.950;2023-01-19T08:16:27;1.70;99.90
21331;DHT22;10824;51.632;4.950;2023-01-19T08:18:54;1.70;99.90
21331;DHT22;10824;51.632;4.950;2023-01-19T08:21:21;1.80;99.90
21331;DHT22;10824;51.632;4.950;2023-01-19T08:23:56;1.70;99.90
21331;DHT22;10824;51.632;4.950;2023-01-19T08:26:34;1.70;99.90
21331;DHT22;10824;51.632;4.950;2023-01-19T08:29:03;1.70;99.90
21331;DHT22;10824;51.632;4.950;2023-01-19T08:31:31;1.70;99.90
21331;DHT22;10824;51.632;4.950;2023-01-19T08:33:58;1.70;99.90
21331;DHT22;10824;51.632;4.950;2023-01-19T08:36:27;1.70;99.90
21331;DHT22;10824;51.632;4.950;2023-01-19T08:38:55;1.70;99.90
21331;DHT22;10824;51.632;4.950;2023-01-19T08:41:22;1.70;99.90
21331;DHT22;10824;51.632;4.950;2023-01-19T08:43:49;1.70;99.90
21331;DHT22;10824;51.632;4.950;2023-01-19T08:46:17;1.70;99.90
21331;DHT22;10824;51.632;4.950;2023-01-19T08:48:47;1.70;99.90
21331;DHT22;10824;51.632;4.950;2023-01-19T08:51:17;1.70;99.90
21331;DHT22;10824;51.632;4.950;2023-01-19T08:53:45;1.70;99.90
21331;DHT22;10824;51.632;4.950;2023-01-19T08:56:15;1.70;99.90
21331;DHT22;10824;51.632;4.950;2023-01-19T08:58:46;1.70;99.90
21331;DHT22;10824;51.632;4.950;2023-01-19T09:01:33;1.70;99.90
21331;DHT22;10824;51.632;4.950;2023-01-19T09:04:00;1.70;99.90
21331;DHT22;10824;51.632;4.950;2023-01-19T09:06:27;1.70;99.90
21331;DHT22;10824;51.632;4.950;2023-01-19T09:08:54;1.70;99.90
21331;DHT22;10824;51.632;4.950;2023-01-19T09:11:21;1.70;99.90
21331;DHT22;10824;51.632;4.950;2023-01-19T09:13:48;1.80;99.90
21331;DHT22;10824;51.632;4.950;2023-01-19T09:16:15;1.80;99.90
21331;DHT22;10824;51.632;4.950;2023-01-19T09:18:43;1.80;99.90
21331;DHT22;10824;51.632;4.950;2023-01-19T09:21:13;1.80;99.90
21331;DHT22;10824;51.632;4.950;2023-01-19T09:23:41;1.90;99.90
21331;DHT22;10824;51.632;4.950;2023-01-19T09:26:09;1.90;99.90
21331;DHT22;10824;51.632;4.950;2023-01-19T09:28:36;2.00;99.90
21331;DHT22;10824;51.632;4.950;2023-01-19T09:31:05;2.00;99.90
21331;DHT22;10824;51.632;4.950;2023-01-19T09:33:33;2.00;99.90
21331;DHT22;10824;51.632;4.950;2023-01-19T09:36:00;2.00;99.90
21331;DHT22;10824;51.632;4.950;2023-01-19T09:38:28;2.10;99.90
21331;DHT22;10824;51.632;4.950;2023-01-19T09:40:59;2.20;99.90
21331;DHT22;10824;51.632;4.950;2023-01-19T09:46:26;2.20;99.90
21331;DHT22;10824;51.632;4.950;2023-01-19T09:48:57;2.30;99.90
21331;DHT22;10824;51.632;4.950;2023-01-19T09:51:27;2.30;99.90
21331;DHT22;10824;51.632;4.950;2023-01-19T09:54:05;2.30;99.90
21331;DHT22;10824;51.632;4.950;2023-01-19T09:56:35;2.40;99.90
21331;DHT22;10824;51.632;4.950;2023-01-19T09:59:23;2.40;99.90
21331;DHT22;10824;51.632;4.950;2023-01-19T10:02:27;2.40;99.90
21331;DHT22;10824;51.632;4.950;2023-01-19T10:05:00;2.40;99.90
21331;DHT22;10824;51.632;4.950;2023-01-19T10:10:26;2.60;99.90
21331;DHT22;10824;51.632;4.950;2023-01-19T10:13:16;2.60;99.90
21331;DHT22;10824;51.632;4.950;2023-01-19T10:18:43;2.80;99.90
21331;DHT22;10824;51.632;4.950;2023-01-19T10:23:52;2.80;99.90
21331;DHT22;10824;51.632;4.950;2023-01-19T10:26:45;2.90;99.90
21331;DHT22;10824;51.632;4.950;2023-01-19T10:29:34;2.90;99.90
21331;DHT22;10824;51.632;4.950;2023-01-19T10:32:07;3.00;99.90
21331;DHT22;10824;51.632;4.950;2023-01-19T10:34:38;3.00;99.90
21331;DHT22;10824;51.632;4.950;2023-01-19T10:39:45;3.10;99.90
21331;DHT22;10824;51.632;4.950;2023-01-19T10:42:14;3.10;99.90
21331;DHT22;10824;51.632;4.950;2023-01-19T10:44:43;3.20;99.90
21331;DHT22;10824;51.632;4.950;2023-01-19T10:47:15;3.20;99.90
21331;DHT22;10824;51.632;4.950;2023-01-19T10:49:43;3.30;99.90
21331;DHT22;10824;51.632;4.950;2023-01-19T10:52:33;3.30;99.90
21331;DHT22;10824;51.632;4.950;2023-01-19T10:55:03;3.30;99.90
21331;DHT22;10824;51.632;4.950;2023-01-19T10:57:34;3.30;99.90
21331;DHT22;10824;51.632;4.950;2023-01-19T11:02:56;3.50;99.90
21331;DHT22;10824;51.632;4.950;2023-01-19T11:05:28;3.50;99.90
21331;DHT22;10824;51.632;4.950;2023-01-19T11:07:56;3.60;99.90
21331;DHT22;10824;51.632;4.950;2023-01-19T11:10:26;3.60;99.90
21331;DHT22;10824;51.632;4.950;2023-01-19T11:15:39;3.70;99.90
21331;DHT22;10824;51.632;4.950;2023-01-19T11:18:07;3.70;99.90
21331;DHT22;10824;51.632;4.950;2023-01-19T11:20:47;3.80;99.90
21331;DHT22;10824;51.632;4.950;2023-01-19T11:25:51;3.80;99.90
21331;DHT22;10824;51.632;4.950;2023-01-19T11:28:35;3.90;99.90
21331;DHT22;10824;51.632;4.950;2023-01-19T11:33:51;4.00;99.90
21331;DHT22;10824;51.632;4.950;2023-01-19T11:36:21;4.00;99.90
21331;DHT22;10824;51.632;4.950;2023-01-19T11:38:51;4.00;99.90
21331;DHT22;10824;51.632;4.950;2023-01-19T11:41:26;4.10;99.90
21331;DHT22;10824;51.632;4.950;2023-01-19T11:43:56;4.10;99.90
21331;DHT22;10824;51.632;4.950;2023-01-19T11:46:30;4.10;99.90
21331;DHT22;10824;51.632;4.950;2023-01-19T11:49:03;4.20;99.90
21331;DHT22;10824;51.632;4.950;2023-01-19T11:54:45;4.20;99.90
21331;DHT22;10824;51.632;4.950;2023-01-19T11:57:15;4.30;99.90
21331;DHT22;10824;51.632;4.950;2023-01-19T11:59:43;4.30;99.90
21331;DHT22;10824;51.632;4.950;2023-01-19T12:02:36;4.30;99.90
21331;DHT22;10824;51.632;4.950;2023-01-19T12:05:13;4.40;99.90
21331;DHT22;10824;51.632;4.950;2023-01-19T12:07:43;4.40;99.90
21331;DHT22;10824;51.632;4.950;2023-01-19T12:10:32;4.50;99.90
21331;DHT22;10824;51.632;4.950;2023-01-19T12:12:59;4.50;99.90
21331;DHT22;10824;51.632;4.950;2023-01-19T12:15:39;4.60;99.90
21331;DHT22;10824;51.632;4.950;2023-01-19T12:18:33;4.70;99.90
21331;DHT22;10824;51.632;4.950;2023-01-19T12:21:02;4.70;99.90
21331;DHT22;10824;51.632;4.950;2023-01-19T12:23:31;4.80;99.90
21331;DHT22;10824;51.632;4.950;2023-01-19T12:29:08;5.10;99.90
21331;DHT22;10824;51.632;4.950;2023-01-19T12:31:37;5.20;99.90
21331;DHT22;10824;51.632;4.950;2023-01-19T12:34:26;5.30;99.90
21331;DHT22;10824;51.632;4.950;2023-01-19T12:37:01;5.40;99.90
21331;DHT22;10824;51.632;4.950;2023-01-19T12:39:30;5.40;99.90
21331;DHT22;10824;51.632;4.950;2023-01-19T12:42:27;5.50;99.90
21331;DHT22;10824;51.632;4.950;2023-01-19T12:45:12;5.60;99.90
21331;DHT22;10824;51.632;4.950;2023-01-19T12:47:49;5.60;99.90
21331;DHT22;10824;51.632;4.950;2023-01-19T12:50:22;5.50;99.90
21331;DHT22;10824;51.632;4.950;2023-01-19T12:52:54;5.60;99.90
21331;DHT22;10824;51.632;4.950;2023-01-19T12:55:34;5.80;99.90
21331;DHT22;10824;51.632;4.950;2023-01-19T12:58:15;5.80;99.90
21331;DHT22;10824;51.632;4.950;2023-01-19T13:00:45;5.80;99.90
21331;DHT22;10824;51.632;4.950;2023-01-19T13:08:17;5.90;99.90
21331;DHT22;10824;51.632;4.950;2023-01-19T13:13:40;5.70;99.90
21331;DHT22;10824;51.632;4.950;2023-01-19T13:18:56;5.80;99.90
21331;DHT22;10824;51.632;4.950;2023-01-19T13:21:39;5.80;99.90
21331;DHT22;10824;51.632;4.950;2023-01-19T13:24:20;5.90;99.90
21331;DHT22;10824;51.632;4.950;2023-01-19T13:29:35;6.00;99.90
21331;DHT22;10824;51.632;4.950;2023-01-19T13:32:12;6.00;99.90
21331;DHT22;10824;51.632;4.950;2023-01-19T13:34:53;6.10;99.90
21331;DHT22;10824;51.632;4.950;2023-01-19T13:37:41;6.00;99.90
21331;DHT22;10824;51.632;4.950;2023-01-19T13:40:23;6.10;99.90
21331;DHT22;10824;51.632;4.950;2023-01-19T13:42:52;5.90;99.90
21331;DHT22;10824;51.632;4.950;2023-01-19T13:45:34;5.90;99.90
21331;DHT22;10824;51.632;4.950;2023-01-19T13:48:05;5.90;99.90
21331;DHT22;10824;51.632;4.950;2023-01-19T13:50:36;5.90;99.90
21331;DHT22;10824;51.632;4.950;2023-01-19T13:53:19;5.70;99.90
21331;DHT22;10824;51.632;4.950;2023-01-19T13:58:38;5.40;99.90
21331;DHT22;10824;51.632;4.950;2023-01-19T14:01:16;5.30;99.90
21331;DHT22;10824;51.632;4.950;2023-01-19T14:03:45;5.30;99.90
21331;DHT22;10824;51.632;4.950;2023-01-19T14:06:32;5.30;99.90
21331;DHT22;10824;51.632;4.950;2023-01-19T14:09:14;5.20;99.90
21331;DHT22;10824;51.632;4.950;2023-01-19T14:12:10;5.20;99.90
21331;DHT22;10824;51.632;4.950;2023-01-19T14:14:35;5.10;99.90
21331;DHT22;10824;51.632;4.950;2023-01-19T14:17:27;5.00;99.90
21331;DHT22;10824;51.632;4.950;2023-01-19T14:19:56;4.70;99.90
21331;DHT22;10824;51.632;4.950;2023-01-19T14:22:45;4.60;99.90
21331;DHT22;10824;51.632;4.950;2023-01-19T14:25:33;4.50;99.90
21331;DHT22;10824;51.632;4.950;2023-01-19T14:28:33;4.30;99.90
21331;DHT22;10824;51.632;4.950;2023-01-19T14:37:27;4.00;99.90
21331;DHT22;10824;51.632;4.950;2023-01-19T14:45:15;4.10;99.90
21331;DHT22;10824;51.632;4.950;2023-01-19T14:47:44;4.00;99.90
21331;DHT22;10824;51.632;4.950;2023-01-19T14:50:23;4.00;99.90
21331;DHT22;10824;51.632;4.950;2023-01-19T14:52:59;3.80;99.90
21331;DHT22;10824;51.632;4.950;2023-01-19T14:55:37;3.80;99.90
21331;DHT22;10824;51.632;4.950;2023-01-19T14:58:15;3.80;99.90
21331;DHT22;10824;51.632;4.950;2023-01-19T15:00:44;3.70;99.90
21331;DHT22;10824;51.632;4.950;2023-01-19T15:03:13;3.70;99.90
21331;DHT22;10824;51.632;4.950;2023-01-19T15:05:45;3.70;99.90
21331;DHT22;10824;51.632;4.950;2023-01-19T15:08:32;3.80;99.90
21331;DHT22;10824;51.632;4.950;2023-01-19T15:11:10;3.80;99.90
21331;DHT22;10824;51.632;4.950;2023-01-19T15:13:39;3.80;99.90
21331;DHT22;10824;51.632;4.950;2023-01-19T15:16:07;3.70;99.90
21331;DHT22;10824;51.632;4.950;2023-01-19T15:18:37;3.70;99.90
21331;DHT22;10824;51.632;4.950;2023-01-19T15:21:04;3.70;99.90
21331;DHT22;10824;51.632;4.950;2023-01-19T15:23:33;3.70;99.90
21331;DHT22;10824;51.632;4.950;2023-01-19T15:26:02;3.60;99.90
21331;DHT22;10824;51.632;4.950;2023-01-19T15:28:30;3.60;99.90
21331;DHT22;10824;51.632;4.950;2023-01-19T15:30:59;3.50;99.90
21331;DHT22;10824;51.632;4.950;2023-01-19T15:33:28;3.50;99.90
21331;DHT22;10824;51.632;4.950;2023-01-19T15:35:58;3.50;99.90
21331;DHT22;10824;51.632;4.950;2023-01-19T15:38:26;3.40;99.90
21331;DHT22;10824;51.632;4.950;2023-01-19T15:40:53;3.40;99.90
21331;DHT22;10824;51.632;4.950;2023-01-19T15:43:20;3.40;99.90
21331;DHT22;10824;51.632;4.950;2023-01-19T15:45:52;3.40;99.90
21331;DHT22;10824;51.632;4.950;2023-01-19T15:48:21;3.40;99.90
21331;DHT22;10824;51.632;4.950;2023-01-19T15:50:48;3.30;99.90
21331;DHT22;10824;51.632;4.950;2023-01-19T15:53:17;3.30;99.90
21331;DHT22;10824;51.632;4.950;2023-01-19T15:55:48;3.20;99.90
21331;DHT22;10824;51.632;4.950;2023-01-19T15:58:18;3.10;99.90
21331;DHT22;10824;51.632;4.950;2023-01-19T16:00:57;3.10;99.90
21331;DHT22;10824;51.632;4.950;2023-01-19T16:03:25;3.10;99.90
21331;DHT22;10824;51.632;4.950;2023-01-19T16:05:58;3.00;99.90
21331;DHT22;10824;51.632;4.950;2023-01-19T16:08:25;3.00;99.90
21331;DHT22;10824;51.632;4.950;2023-01-19T16:10:53;3.00;99.90
21331;DHT22;10824;51.632;4.950;2023-01-19T16:13:26;3.00;99.90
21331;DHT22;10824;51.632;4.950;2023-01-19T16:15:55;2.90;99.90
21331;DHT22;10824;51.632;4.950;2023-01-19T16:18:26;2.80;99.90
21331;DHT22;10824;51.632;4.950;2023-01-19T16:20:54;2.80;99.90
21331;DHT22;10824;51.632;4.950;2023-01-19T16:23:21;2.80;99.90
21331;DHT22;10824;51.632;4.950;2023-01-19T16:26:00;2.80;99.90
21331;DHT22;10824;51.632;4.950;2023-01-19T16:28:30;2.80;99.90
21331;DHT22;10824;51.632;4.950;2023-01-19T16:31:02;2.70;99.90
21331;DHT22;10824;51.632;4.950;2023-01-19T16:33:29;2.60;99.90
21331;DHT22;10824;51.632;4.950;2023-01-19T16:35:57;2.60;99.90
21331;DHT22;10824;51.632;4.950;2023-01-19T16:38:24;2.60;99.90
21331;DHT22;10824;51.632;4.950;2023-01-19T16:40:51;2.60;99.90
21331;DHT22;10824;51.632;4.950;2023-01-19T16:43:19;2.60;99.90
21331;DHT22;10824;51.632;4.950;2023-01-19T16:46:19;2.50;99.90
21331;DHT22;10824;51.632;4.950;2023-01-19T16:48:47;2.50;99.90
21331;DHT22;10824;51.632;4.950;2023-01-19T16:51:14;2.50;99.90
21331;DHT22;10824;51.632;4.950;2023-01-19T16:53:42;2.40;99.90
21331;DHT22;10824;51.632;4.950;2023-01-19T16:56:11;2.40;99.90
21331;DHT22;10824;51.632;4.950;2023-01-19T16:58:40;2.40;99.90
21331;DHT22;10824;51.632;4.950;2023-01-19T17:01:17;2.40;99.90
21331;DHT22;10824;51.632;4.950;2023-01-19T17:03:47;2.30;99.90
21331;DHT22;10824;51.632;4.950;2023-01-19T17:06:15;2.50;99.90
21331;DHT22;10824;51.632;4.950;2023-01-19T17:08:46;2.30;99.90
21331;DHT22;10824;51.632;4.950;2023-01-19T17:11:22;2.30;99.90
21331;DHT22;10824;51.632;4.950;2023-01-19T17:13:54;2.30;99.90
21331;DHT22;10824;51.632;4.950;2023-01-19T17:16:23;2.20;99.90
21331;DHT22;10824;51.632;4.950;2023-01-19T17:18:50;2.10;99.90
21331;DHT22;10824;51.632;4.950;2023-01-19T17:21:18;2.10;99.90
21331;DHT22;10824;51.632;4.950;2023-01-19T17:23:50;2.10;99.90
21331;DHT22;10824;51.632;4.950;2023-01-19T17:26:18;2.10;99.90
21331;DHT22;10824;51.632;4.950;2023-01-19T17:28:45;2.10;99.90